This is the latest recevied weather packets stored in our database for station/object SP2WM. If no packets are shown the sender has not sent any weather packets the latest 10 day(s).
| Time | Temp. | Humidity | Pressure | Rain* | Wind** | Luminosity | Snow |
|---|---|---|---|---|---|---|---|
| 1778145024 | 9.44° C | 91% | 1009.5 hPa | 0 mm | - | - | - |
| 1778144424 | 8.89° C | 93% | 1009.4 hPa | 0 mm | - | - | - |
| 1778143825 | 8.89° C | 95% | 1009.2 hPa | 0 mm | - | - | - |
| 1778143226 | 8.33° C | 96% | 1009 hPa | 0 mm | - | - | - |
| 1778142627 | 8.33° C | 96% | 1008.6 hPa | 0 mm | - | - | - |
| 1778142027 | 8.33° C | 97% | 1008.5 hPa | 0 mm | - | - | - |
| 1778141426 | 8.33° C | 97% | 1008.5 hPa | 0 mm | - | - | - |
| 1778140825 | 7.78° C | 97% | 1008.3 hPa | 0 mm | - | - | - |
| 1778140231 | 7.78° C | 97% | 1008.4 hPa | 0 mm | - | - | - |
| 1778139631 | 7.78° C | 97% | 1008.2 hPa | 0 mm | - | - | - |
| 1778139031 | 7.78° C | 97% | 1008.1 hPa | 0 mm | - | - | - |
| 1778138432 | 7.78° C | 97% | 1007.9 hPa | 0 mm | - | - | - |
| 1778137837 | 7.22° C | 97% | 1008 hPa | 0 mm | - | - | - |
| 1778137237 | 7.78° C | 97% | 1008 hPa | 0 mm | - | - | - |
| 1778136638 | 7.22° C | 97% | 1008 hPa | 0 mm | - | - | - |
| 1778136039 | 7.78° C | 97% | 1007.9 hPa | 0 mm | - | - | - |
| 1778135441 | 7.78° C | 97% | 1007.9 hPa | 0 mm | - | - | - |
| 1778134841 | 7.78° C | 97% | 1007.8 hPa | 0 mm | - | - | - |
| 1778134238 | 7.78° C | 97% | 1007.8 hPa | 0 mm | - | - | - |
| 1778133638 | 7.78° C | 97% | 1007.6 hPa | 0 mm | - | - | - |
| 1778133038 | 7.78° C | 97% | 1007.4 hPa | 0 mm | - | - | - |
| 1778132440 | 7.22° C | 97% | 1007.3 hPa | 0 mm | - | - | - |
| 1778110235 | 9.44° C | 94% | 1005.4 hPa | 1.02 mm | - | - | - |
| 1778109634 | 9.44° C | 92% | 1005.8 hPa | 1.02 mm | - | - | - |
| 1778109038 | 10° C | 89% | 1005.8 hPa | 1.02 mm | - | - | - |
* Rain latest hour (hover to see other rain measurements)
** Current wind speed in m/s (hover to see current wind gust speed)